sensor_id;sensor_type;location;lat;lon;timestamp;pressure;altitude;pressure_sealevel;temperature;humidity
45763;BME280;37512;52.408;13.356;2023-12-20T00:03:57;100411.72;;;6.39;95.27
45763;BME280;37512;52.408;13.356;2023-12-20T00:07:59;100411.19;;;6.27;95.78
45763;BME280;37512;52.408;13.356;2023-12-20T00:12:01;100410.22;;;6.37;96.03
45763;BME280;37512;52.408;13.356;2023-12-20T00:16:03;100406.34;;;6.57;94.63
45763;BME280;37512;52.408;13.356;2023-12-20T00:20:06;100391.94;;;6.42;94.92
45763;BME280;37512;52.408;13.356;2023-12-20T00:24:08;100391.88;;;6.25;95.63
45763;BME280;37512;52.408;13.356;2023-12-20T00:28:10;100392.25;;;6.30;95.70
45763;BME280;37512;52.408;13.356;2023-12-20T00:32:12;100397.06;;;6.35;96.17
45763;BME280;37512;52.408;13.356;2023-12-20T00:36:14;100391.19;;;6.57;94.93
45763;BME280;37512;52.408;13.356;2023-12-20T00:40:16;100385.56;;;6.26;96.30
45763;BME280;37512;52.408;13.356;2023-12-20T00:44:17;100386.59;;;6.33;95.87
45763;BME280;37512;52.408;13.356;2023-12-20T00:48:19;100382.75;;;6.28;95.31
45763;BME280;37512;52.408;13.356;2023-12-20T00:52:21;100381.91;;;6.61;94.23
45763;BME280;37512;52.408;13.356;2023-12-20T00:56:24;100382.06;;;6.26;96.14
45763;BME280;37512;52.408;13.356;2023-12-20T01:00:25;100386.34;;;6.53;94.95
45763;BME280;37512;52.408;13.356;2023-12-20T01:04:27;100381.69;;;6.47;94.61
45763;BME280;37512;52.408;13.356;2023-12-20T01:08:29;100378.63;;;6.33;96.22
45763;BME280;37512;52.408;13.356;2023-12-20T01:12:30;100389.00;;;6.45;95.31
45763;BME280;37512;52.408;13.356;2023-12-20T01:16:32;100388.22;;;6.26;96.64
45763;BME280;37512;52.408;13.356;2023-12-20T01:20:34;100372.00;;;6.12;96.57
45763;BME280;37512;52.408;13.356;2023-12-20T01:24:35;100375.19;;;6.49;94.57
45763;BME280;37512;52.408;13.356;2023-12-20T01:28:37;100384.09;;;6.32;96.13
45763;BME280;37512;52.408;13.356;2023-12-20T01:32:40;100389.41;;;6.32;95.83
45763;BME280;37512;52.408;13.356;2023-12-20T01:36:42;100383.94;;;6.33;96.23
45763;BME280;37512;52.408;13.356;2023-12-20T01:40:44;100386.25;;;6.28;96.51
45763;BME280;37512;52.408;13.356;2023-12-20T01:44:47;100387.59;;;6.32;96.96
45763;BME280;37512;52.408;13.356;2023-12-20T01:48:49;100373.09;;;6.27;97.63
45763;BME280;37512;52.408;13.356;2023-12-20T01:52:52;100369.47;;;6.36;97.61
45763;BME280;37512;52.408;13.356;2023-12-20T01:56:57;100371.31;;;6.35;96.23
45763;BME280;37512;52.408;13.356;2023-12-20T02:01:00;100362.66;;;6.33;97.16
45763;BME280;37512;52.408;13.356;2023-12-20T02:05:02;100361.41;;;6.54;96.51
45763;BME280;37512;52.408;13.356;2023-12-20T02:09:05;100358.66;;;6.38;95.85
45763;BME280;37512;52.408;13.356;2023-12-20T02:13:07;100349.31;;;6.25;97.74
45763;BME280;37512;52.408;13.356;2023-12-20T02:17:08;100351.44;;;6.22;98.33
45763;BME280;37512;52.408;13.356;2023-12-20T02:21:10;100353.97;;;6.65;95.19
45763;BME280;37512;52.408;13.356;2023-12-20T02:25:12;100363.31;;;6.35;98.09
45763;BME280;37512;52.408;13.356;2023-12-20T02:29:14;100359.81;;;6.69;96.06
45763;BME280;37512;52.408;13.356;2023-12-20T02:33:15;100363.00;;;6.81;95.68
45763;BME280;37512;52.408;13.356;2023-12-20T02:37:18;100355.69;;;6.41;97.52
45763;BME280;37512;52.408;13.356;2023-12-20T02:41:19;100351.00;;;6.77;96.05
45763;BME280;37512;52.408;13.356;2023-12-20T02:45:24;100345.50;;;6.70;95.63
45763;BME280;37512;52.408;13.356;2023-12-20T02:49:26;100347.38;;;6.86;95.09
45763;BME280;37512;52.408;13.356;2023-12-20T02:53:28;100357.56;;;7.07;94.00
45763;BME280;37512;52.408;13.356;2023-12-20T02:57:29;100351.19;;;6.83;94.62
45763;BME280;37512;52.408;13.356;2023-12-20T03:06:57;100352.69;;;6.86;93.77
45763;BME280;37512;52.408;13.356;2023-12-20T03:11:00;100364.84;;;6.88;92.95
45763;BME280;37512;52.408;13.356;2023-12-20T03:15:02;100361.25;;;7.14;91.74
45763;BME280;37512;52.408;13.356;2023-12-20T03:19:04;100363.34;;;6.78;91.85
45763;BME280;37512;52.408;13.356;2023-12-20T03:23:06;100371.06;;;7.05;92.39
45763;BME280;37512;52.408;13.356;2023-12-20T03:27:08;100373.22;;;7.02;91.97
45763;BME280;37512;52.408;13.356;2023-12-20T03:31:09;100367.44;;;7.14;92.02
45763;BME280;37512;52.408;13.356;2023-12-20T03:35:12;100371.41;;;7.10;91.74
45763;BME280;37512;52.408;13.356;2023-12-20T03:39:13;100377.06;;;7.07;91.76
45763;BME280;37512;52.408;13.356;2023-12-20T03:43:15;100364.75;;;7.22;90.51
45763;BME280;37512;52.408;13.356;2023-12-20T03:47:17;100369.69;;;6.85;92.20
45763;BME280;37512;52.408;13.356;2023-12-20T03:51:19;100372.09;;;7.12;90.76
45763;BME280;37512;52.408;13.356;2023-12-20T03:55:21;100365.69;;;6.89;92.24
45763;BME280;37512;52.408;13.356;2023-12-20T03:59:22;100357.25;;;7.02;91.30
45763;BME280;37512;52.408;13.356;2023-12-20T04:03:25;100345.56;;;6.94;91.57
45763;BME280;37512;52.408;13.356;2023-12-20T04:07:26;100343.25;;;7.08;90.11
45763;BME280;37512;52.408;13.356;2023-12-20T04:11:28;100353.25;;;7.06;90.44
45763;BME280;37512;52.408;13.356;2023-12-20T04:15:30;100339.22;;;6.79;91.40
45763;BME280;37512;52.408;13.356;2023-12-20T04:19:32;100325.53;;;6.74;91.29
45763;BME280;37512;52.408;13.356;2023-12-20T04:23:34;100343.38;;;6.90;90.51
45763;BME280;37512;52.408;13.356;2023-12-20T04:27:35;100324.03;;;6.72;90.10
45763;BME280;37512;52.408;13.356;2023-12-20T04:31:39;100328.59;;;6.95;89.73
45763;BME280;37512;52.408;13.356;2023-12-20T04:35:41;100336.19;;;6.74;89.97
45763;BME280;37512;52.408;13.356;2023-12-20T04:39:44;100335.66;;;6.62;90.59
45763;BME280;37512;52.408;13.356;2023-12-20T04:43:46;100334.59;;;6.47;90.63
45763;BME280;37512;52.408;13.356;2023-12-20T04:47:47;100332.56;;;6.41;91.45
45763;BME280;37512;52.408;13.356;2023-12-20T04:51:49;100336.28;;;6.48;90.58
45763;BME280;37512;52.408;13.356;2023-12-20T04:55:51;100329.13;;;6.49;89.24
45763;BME280;37512;52.408;13.356;2023-12-20T04:59:53;100334.31;;;5.90;90.09
45763;BME280;37512;52.408;13.356;2023-12-20T05:03:54;100334.50;;;5.97;89.00
45763;BME280;37512;52.408;13.356;2023-12-20T05:07:56;100332.09;;;6.12;88.32
45763;BME280;37512;52.408;13.356;2023-12-20T05:11:58;100346.44;;;6.19;88.18
45763;BME280;37512;52.408;13.356;2023-12-20T05:16:00;100355.28;;;5.93;88.50
45763;BME280;37512;52.408;13.356;2023-12-20T05:20:02;100343.16;;;5.73;90.12
45763;BME280;37512;52.408;13.356;2023-12-20T05:24:04;100345.63;;;5.92;89.33
45763;BME280;37512;52.408;13.356;2023-12-20T05:28:06;100352.28;;;6.22;87.79
45763;BME280;37512;52.408;13.356;2023-12-20T05:32:08;100349.19;;;5.83;89.95
45763;BME280;37512;52.408;13.356;2023-12-20T05:36:10;100350.13;;;5.74;88.67
45763;BME280;37512;52.408;13.356;2023-12-20T05:40:13;100344.38;;;5.61;88.19
45763;BME280;37512;52.408;13.356;2023-12-20T05:44:14;100350.53;;;5.43;88.92
45763;BME280;37512;52.408;13.356;2023-12-20T05:48:16;100341.44;;;5.46;88.50
45763;BME280;37512;52.408;13.356;2023-12-20T05:52:18;100342.19;;;5.56;87.75
45763;BME280;37512;52.408;13.356;2023-12-20T05:56:20;100343.06;;;5.65;86.57
45763;BME280;37512;52.408;13.356;2023-12-20T06:00:23;100332.16;;;5.32;88.54
45763;BME280;37512;52.408;13.356;2023-12-20T06:04:25;100337.19;;;5.35;87.33
45763;BME280;37512;52.408;13.356;2023-12-20T06:08:30;100330.03;;;5.36;87.63
45763;BME280;37512;52.408;13.356;2023-12-20T06:12:31;100325.56;;;5.36;86.25
45763;BME280;37512;52.408;13.356;2023-12-20T06:16:34;100317.59;;;5.36;86.47
45763;BME280;37512;52.408;13.356;2023-12-20T06:20:44;100317.38;;;5.12;87.34
45763;BME280;37512;52.408;13.356;2023-12-20T06:24:45;100319.25;;;5.37;86.87
45763;BME280;37512;52.408;13.356;2023-12-20T06:28:47;100310.03;;;5.24;86.84
45763;BME280;37512;52.408;13.356;2023-12-20T06:32:49;100320.41;;;5.17;87.13
45763;BME280;37512;52.408;13.356;2023-12-20T06:36:51;100335.81;;;5.13;87.84
45763;BME280;37512;52.408;13.356;2023-12-20T06:40:53;100320.97;;;5.21;87.92
45763;BME280;37512;52.408;13.356;2023-12-20T06:44:55;100334.09;;;5.04;89.13
45763;BME280;37512;52.408;13.356;2023-12-20T06:49:11;100328.78;;;5.04;88.44
45763;BME280;37512;52.408;13.356;2023-12-20T06:53:13;100327.53;;;5.17;88.27
45763;BME280;37512;52.408;13.356;2023-12-20T06:57:15;100318.44;;;5.01;89.16
45763;BME280;37512;52.408;13.356;2023-12-20T07:01:17;100316.91;;;5.17;88.67
45763;BME280;37512;52.408;13.356;2023-12-20T07:05:20;100322.16;;;5.26;88.62
45763;BME280;37512;52.408;13.356;2023-12-20T07:09:21;100317.38;;;5.30;88.55
45763;BME280;37512;52.408;13.356;2023-12-20T07:13:23;100314.94;;;5.01;89.93
45763;BME280;37512;52.408;13.356;2023-12-20T07:17:25;100309.63;;;5.19;89.00
45763;BME280;37512;52.408;13.356;2023-12-20T07:21:27;100310.88;;;5.06;89.12
45763;BME280;37512;52.408;13.356;2023-12-20T07:25:29;100309.94;;;5.15;88.59
45763;BME280;37512;52.408;13.356;2023-12-20T07:29:34;100311.59;;;5.34;87.72
45763;BME280;37512;52.408;13.356;2023-12-20T07:33:36;100305.31;;;5.18;88.10
45763;BME280;37512;52.408;13.356;2023-12-20T07:37:40;100320.72;;;4.96;88.07
45763;BME280;37512;52.408;13.356;2023-12-20T07:41:42;100315.78;;;5.19;88.50
45763;BME280;37512;52.408;13.356;2023-12-20T07:45:47;100303.66;;;5.17;87.58
45763;BME280;37512;52.408;13.356;2023-12-20T07:49:49;100303.09;;;5.31;86.73
45763;BME280;37512;52.408;13.356;2023-12-20T07:53:53;100309.19;;;5.41;85.44
45763;BME280;37512;52.408;13.356;2023-12-20T07:57:55;100305.09;;;5.29;85.50
45763;BME280;37512;52.408;13.356;2023-12-20T08:01:57;100311.81;;;5.59;84.99
45763;BME280;37512;52.408;13.356;2023-12-20T08:05:59;100322.53;;;5.31;85.04
45763;BME280;37512;52.408;13.356;2023-12-20T08:10:02;100308.09;;;5.34;84.15
45763;BME280;37512;52.408;13.356;2023-12-20T08:14:04;100319.66;;;5.68;82.73
45763;BME280;37512;52.408;13.356;2023-12-20T08:18:06;100308.81;;;5.62;83.92
45763;BME280;37512;52.408;13.356;2023-12-20T08:22:07;100294.19;;;5.58;84.84
45763;BME280;37512;52.408;13.356;2023-12-20T08:26:09;100316.38;;;5.31;85.51
45763;BME280;37512;52.408;13.356;2023-12-20T08:30:15;100304.72;;;5.24;85.13
45763;BME280;37512;52.408;13.356;2023-12-20T08:34:19;100293.50;;;5.56;85.00
45763;BME280;37512;52.408;13.356;2023-12-20T08:38:21;100306.75;;;5.30;85.17
45763;BME280;37512;52.408;13.356;2023-12-20T08:42:24;100297.03;;;5.64;84.13
45763;BME280;37512;52.408;13.356;2023-12-20T08:46:32;100284.13;;;5.43;84.01
45763;BME280;37512;52.408;13.356;2023-12-20T08:50:34;100299.91;;;5.71;83.01
45763;BME280;37512;52.408;13.356;2023-12-20T08:54:36;100298.03;;;5.89;83.56
45763;BME280;37512;52.408;13.356;2023-12-20T08:58:38;100285.34;;;5.75;84.39
45763;BME280;37512;52.408;13.356;2023-12-20T09:02:41;100279.38;;;5.55;84.57
45763;BME280;37512;52.408;13.356;2023-12-20T09:06:43;100283.22;;;5.87;83.73
45763;BME280;37512;52.408;13.356;2023-12-20T09:10:45;100279.13;;;6.93;84.76
45763;BME280;37512;52.408;13.356;2023-12-20T09:14:49;100282.16;;;6.40;81.29
45763;BME280;37512;52.408;13.356;2023-12-20T09:18:51;100277.78;;;6.22;81.83
45763;BME280;37512;52.408;13.356;2023-12-20T09:28:16;100265.22;;;6.07;81.89
45763;BME280;37512;52.408;13.356;2023-12-20T09:32:17;100273.44;;;6.13;81.36
45763;BME280;37512;52.408;13.356;2023-12-20T09:36:19;100273.56;;;5.86;81.10
45763;BME280;37512;52.408;13.356;2023-12-20T09:40:22;100271.91;;;6.11;81.54
45763;BME280;37512;52.408;13.356;2023-12-20T09:44:28;100271.69;;;5.96;81.61
45763;BME280;37512;52.408;13.356;2023-12-20T09:48:31;100268.63;;;6.17;80.90
45763;BME280;37512;52.408;13.356;2023-12-20T09:52:34;100267.00;;;6.32;80.81
45763;BME280;37512;52.408;13.356;2023-12-20T09:56:37;100266.34;;;6.30;79.60
45763;BME280;37512;52.408;13.356;2023-12-20T10:00:39;100255.38;;;6.25;79.53
45763;BME280;37512;52.408;13.356;2023-12-20T10:04:46;100248.94;;;6.44;79.05
45763;BME280;37512;52.408;13.356;2023-12-20T10:08:52;100231.53;;;6.82;77.20
45763;BME280;37512;52.408;13.356;2023-12-20T10:13:20;100227.25;;;6.30;78.00
45763;BME280;37512;52.408;13.356;2023-12-20T10:17:22;100224.81;;;6.45;78.09
45763;BME280;37512;52.408;13.356;2023-12-20T10:21:25;100199.88;;;6.46;77.91
45763;BME280;37512;52.408;13.356;2023-12-20T10:25:30;100201.19;;;6.50;77.26
45763;BME280;37512;52.408;13.356;2023-12-20T10:29:35;100198.84;;;6.39;76.84
45763;BME280;37512;52.408;13.356;2023-12-20T10:33:40;100201.88;;;6.52;76.02
45763;BME280;37512;52.408;13.356;2023-12-20T10:37:42;100181.44;;;6.61;75.81
45763;BME280;37512;52.408;13.356;2023-12-20T10:41:44;100183.56;;;6.49;75.79
45763;BME280;37512;52.408;13.356;2023-12-20T10:45:47;100173.41;;;6.53;75.93
45763;BME280;37512;52.408;13.356;2023-12-20T10:49:49;100152.97;;;6.70;75.29
45763;BME280;37512;52.408;13.356;2023-12-20T10:53:53;100155.47;;;6.87;74.65
45763;BME280;37512;52.408;13.356;2023-12-20T10:58:01;100148.47;;;6.86;74.68
45763;BME280;37512;52.408;13.356;2023-12-20T11:02:04;100139.00;;;6.68;74.94
45763;BME280;37512;52.408;13.356;2023-12-20T11:14:56;100110.03;;;6.64;74.91
45763;BME280;37512;52.408;13.356;2023-12-20T11:19:05;100117.88;;;6.66;74.29
45763;BME280;37512;52.408;13.356;2023-12-20T11:23:10;100104.72;;;6.81;73.16
45763;BME280;37512;52.408;13.356;2023-12-20T11:27:14;100101.69;;;6.76;74.96
45763;BME280;37512;52.408;13.356;2023-12-20T11:31:17;100110.84;;;6.57;74.29
45763;BME280;37512;52.408;13.356;2023-12-20T11:35:19;100091.72;;;6.37;76.91
45763;BME280;37512;52.408;13.356;2023-12-20T11:39:21;100076.09;;;6.50;77.74
45763;BME280;37512;52.408;13.356;2023-12-20T11:43:31;100072.28;;;6.45;76.05
45763;BME280;37512;52.408;13.356;2023-12-20T11:52:40;100057.75;;;6.88;77.18
45763;BME280;37512;52.408;13.356;2023-12-20T11:56:46;100060.47;;;6.47;77.29
45763;BME280;37512;52.408;13.356;2023-12-20T12:00:49;100059.97;;;6.44;76.82
45763;BME280;37512;52.408;13.356;2023-12-20T12:04:51;100037.53;;;6.46;76.92
45763;BME280;37512;52.408;13.356;2023-12-20T12:08:54;100034.69;;;6.48;77.07
45763;BME280;37512;52.408;13.356;2023-12-20T12:12:59;100019.03;;;6.53;76.42
45763;BME280;37512;52.408;13.356;2023-12-20T12:17:03;100000.75;;;6.50;76.39
45763;BME280;37512;52.408;13.356;2023-12-20T12:21:04;100001.41;;;6.52;75.53
45763;BME280;37512;52.408;13.356;2023-12-20T12:25:16;99995.91;;;6.53;75.92
45763;BME280;37512;52.408;13.356;2023-12-20T12:29:19;99986.59;;;6.49;76.64
45763;BME280;37512;52.408;13.356;2023-12-20T12:33:21;99978.66;;;6.25;77.47
45763;BME280;37512;52.408;13.356;2023-12-20T12:37:23;99956.38;;;6.18;82.46
45763;BME280;37512;52.408;13.356;2023-12-20T12:41:29;99960.22;;;6.15;82.29
45763;BME280;37512;52.408;13.356;2023-12-20T12:45:31;99968.84;;;6.01;81.75
45763;BME280;37512;52.408;13.356;2023-12-20T12:49:34;99958.06;;;6.11;82.58
45763;BME280;37512;52.408;13.356;2023-12-20T12:53:36;99942.59;;;5.98;85.04
45763;BME280;37512;52.408;13.356;2023-12-20T12:57:53;99939.78;;;5.91;84.30
45763;BME280;37512;52.408;13.356;2023-12-20T13:01:55;99946.59;;;5.94;84.85
45763;BME280;37512;52.408;13.356;2023-12-20T13:05:58;99943.91;;;6.02;84.67
45763;BME280;37512;52.408;13.356;2023-12-20T13:10:01;99930.41;;;5.87;86.57
45763;BME280;37512;52.408;13.356;2023-12-20T13:14:04;99920.81;;;6.02;89.07
45763;BME280;37512;52.408;13.356;2023-12-20T13:18:06;99910.84;;;5.96;85.58
45763;BME280;37512;52.408;13.356;2023-12-20T13:22:08;99920.97;;;6.01;87.61
45763;BME280;37512;52.408;13.356;2023-12-20T13:26:10;99942.44;;;6.08;87.22
45763;BME280;37512;52.408;13.356;2023-12-20T13:30:16;99956.38;;;6.01;87.96
45763;BME280;37512;52.408;13.356;2023-12-20T13:34:19;99992.09;;;6.07;94.14
45763;BME280;37512;52.408;13.356;2023-12-20T13:38:24;100006.75;;;6.03;89.70
45763;BME280;37512;52.408;13.356;2023-12-20T13:42:27;100010.16;;;5.71;88.48
45763;BME280;37512;52.408;13.356;2023-12-20T13:46:29;100012.81;;;5.63;86.29
45763;BME280;37512;52.408;13.356;2023-12-20T13:50:31;99983.38;;;5.40;83.04
45763;BME280;37512;52.408;13.356;2023-12-20T13:54:33;99971.84;;;5.23;81.63
45763;BME280;37512;52.408;13.356;2023-12-20T13:58:35;99983.66;;;5.29;83.18
45763;BME280;37512;52.408;13.356;2023-12-20T14:02:39;99982.22;;;5.00;83.74
45763;BME280;37512;52.408;13.356;2023-12-20T14:06:40;99988.00;;;4.96;84.96
45763;BME280;37512;52.408;13.356;2023-12-20T14:10:43;99999.34;;;5.06;84.81
45763;BME280;37512;52.408;13.356;2023-12-20T14:14:45;100012.81;;;4.78;85.35
45763;BME280;37512;52.408;13.356;2023-12-20T14:18:47;100023.38;;;4.70;85.91
45763;BME280;37512;52.408;13.356;2023-12-20T14:22:49;100031.56;;;4.85;85.48
45763;BME280;37512;52.408;13.356;2023-12-20T14:26:51;100039.50;;;4.77;85.30
45763;BME280;37512;52.408;13.356;2023-12-20T14:30:53;100040.53;;;4.58;87.05
45763;BME280;37512;52.408;13.356;2023-12-20T14:34:55;100045.78;;;4.50;86.24
45763;BME280;37512;52.408;13.356;2023-12-20T14:38:57;100056.16;;;4.87;85.81
45763;BME280;37512;52.408;13.356;2023-12-20T14:42:59;100059.00;;;4.68;86.12
45763;BME280;37512;52.408;13.356;2023-12-20T14:47:02;100051.88;;;4.68;86.37
45763;BME280;37512;52.408;13.356;2023-12-20T14:51:04;100054.13;;;5.07;86.08
45763;BME280;37512;52.408;13.356;2023-12-20T14:55:06;100067.56;;;5.05;85.54
45763;BME280;37512;52.408;13.356;2023-12-20T14:59:09;100070.97;;;5.24;83.61
45763;BME280;37512;52.408;13.356;2023-12-20T15:03:11;100056.22;;;5.29;83.31
45763;BME280;37512;52.408;13.356;2023-12-20T15:07:14;100046.34;;;5.13;83.29
45763;BME280;37512;52.408;13.356;2023-12-20T15:11:18;100078.03;;;5.15;81.82
45763;BME280;37512;52.408;13.356;2023-12-20T15:15:20;100068.66;;;5.29;82.63
45763;BME280;37512;52.408;13.356;2023-12-20T15:19:22;100064.81;;;5.23;81.53
45763;BME280;37512;52.408;13.356;2023-12-20T15:23:25;100059.28;;;5.51;80.47
45763;BME280;37512;52.408;13.356;2023-12-20T15:27:29;100061.69;;;5.02;81.65
45763;BME280;37512;52.408;13.356;2023-12-20T15:31:31;100063.03;;;5.32;81.07
45763;BME280;37512;52.408;13.356;2023-12-20T15:35:34;100070.66;;;5.01;82.23
45763;BME280;37512;52.408;13.356;2023-12-20T15:39:36;100073.22;;;5.10;81.95
45763;BME280;37512;52.408;13.356;2023-12-20T15:43:39;100076.84;;;4.83;82.67
45763;BME280;37512;52.408;13.356;2023-12-20T15:47:41;100081.91;;;4.95;81.95
45763;BME280;37512;52.408;13.356;2023-12-20T15:52:01;100081.75;;;4.96;82.72
45763;BME280;37512;52.408;13.356;2023-12-20T15:56:13;100092.22;;;4.98;82.68
45763;BME280;37512;52.408;13.356;2023-12-20T16:00:16;100102.22;;;5.04;82.79
45763;BME280;37512;52.408;13.356;2023-12-20T16:04:19;100096.44;;;5.08;82.06
45763;BME280;37512;52.408;13.356;2023-12-20T16:08:22;100092.56;;;5.03;81.38
45763;BME280;37512;52.408;13.356;2023-12-20T16:12:24;100102.66;;;4.91;82.26
45763;BME280;37512;52.408;13.356;2023-12-20T16:16:26;100098.78;;;4.85;82.34
45763;BME280;37512;52.408;13.356;2023-12-20T16:20:29;100106.84;;;5.02;80.99
45763;BME280;37512;52.408;13.356;2023-12-20T16:24:32;100111.44;;;4.92;81.61
45763;BME280;37512;52.408;13.356;2023-12-20T16:28:40;100113.53;;;5.06;79.63
45763;BME280;37512;52.408;13.356;2023-12-20T16:32:43;100103.94;;;5.13;80.58
45763;BME280;37512;52.408;13.356;2023-12-20T16:36:50;100106.78;;;5.20;80.91
45763;BME280;37512;52.408;13.356;2023-12-20T16:40:53;100106.69;;;5.29;81.07
45763;BME280;37512;52.408;13.356;2023-12-20T16:44:57;100111.44;;;4.92;83.18
45763;BME280;37512;52.408;13.356;2023-12-20T16:49:00;100101.59;;;5.10;82.13
45763;BME280;37512;52.408;13.356;2023-12-20T16:53:05;100102.06;;;4.79;83.27
45763;BME280;37512;52.408;13.356;2023-12-20T16:57:10;100098.63;;;5.13;82.12
45763;BME280;37512;52.408;13.356;2023-12-20T17:01:14;100107.59;;;4.86;83.24
45763;BME280;37512;52.408;13.356;2023-12-20T17:05:18;100108.47;;;4.95;81.98
45763;BME280;37512;52.408;13.356;2023-12-20T17:09:21;100104.97;;;5.20;80.89
45763;BME280;37512;52.408;13.356;2023-12-20T17:13:24;100098.41;;;5.83;79.97
45763;BME280;37512;52.408;13.356;2023-12-20T17:17:28;100108.06;;;5.84;77.73
45763;BME280;37512;52.408;13.356;2023-12-20T17:21:31;100108.97;;;5.24;80.55
45763;BME280;37512;52.408;13.356;2023-12-20T17:25:34;100092.66;;;5.19;80.76
45763;BME280;37512;52.408;13.356;2023-12-20T17:29:41;100112.03;;;5.37;79.67
45763;BME280;37512;52.408;13.356;2023-12-20T17:33:44;100108.59;;;5.19;80.46
45763;BME280;37512;52.408;13.356;2023-12-20T17:37:47;100108.91;;;5.42;79.48
45763;BME280;37512;52.408;13.356;2023-12-20T17:41:52;100106.50;;;5.31;80.28
45763;BME280;37512;52.408;13.356;2023-12-20T17:45:56;100101.25;;;5.05;81.46
45763;BME280;37512;52.408;13.356;2023-12-20T17:49:58;100102.53;;;5.27;81.09
45763;BME280;37512;52.408;13.356;2023-12-20T17:54:02;100096.38;;;5.26;79.71
45763;BME280;37512;52.408;13.356;2023-12-20T17:58:06;100107.94;;;4.91;80.85
45763;BME280;37512;52.408;13.356;2023-12-20T18:02:09;100106.44;;;5.14;80.70
45763;BME280;37512;52.408;13.356;2023-12-20T18:06:14;100108.75;;;5.18;80.12
45763;BME280;37512;52.408;13.356;2023-12-20T18:10:19;100109.50;;;5.02;80.67
45763;BME280;37512;52.408;13.356;2023-12-20T18:14:25;100116.59;;;4.93;80.19
45763;BME280;37512;52.408;13.356;2023-12-20T18:18:31;100110.69;;;5.33;78.88
45763;BME280;37512;52.408;13.356;2023-12-20T18:22:38;100107.19;;;5.33;78.36
45763;BME280;37512;52.408;13.356;2023-12-20T18:26:42;100106.72;;;5.03;78.82
45763;BME280;37512;52.408;13.356;2023-12-20T18:30:45;100115.97;;;5.59;77.29
45763;BME280;37512;52.408;13.356;2023-12-20T18:34:48;100110.41;;;5.10;78.65
45763;BME280;37512;52.408;13.356;2023-12-20T18:38:54;100102.72;;;5.33;77.80
45763;BME280;37512;52.408;13.356;2023-12-20T18:42:57;100106.88;;;5.36;77.39
45763;BME280;37512;52.408;13.356;2023-12-20T18:47:00;100100.09;;;5.41;77.77
45763;BME280;37512;52.408;13.356;2023-12-20T18:51:07;100113.72;;;5.38;77.21
45763;BME280;37512;52.408;13.356;2023-12-20T18:55:09;100108.06;;;5.41;78.08
45763;BME280;37512;52.408;13.356;2023-12-20T18:59:15;100101.03;;;5.24;77.94
45763;BME280;37512;52.408;13.356;2023-12-20T19:03:21;100094.50;;;5.19;78.84
45763;BME280;37512;52.408;13.356;2023-12-20T19:07:29;100092.22;;;5.24;79.08
45763;BME280;37512;52.408;13.356;2023-12-20T19:11:32;100097.47;;;5.15;79.21
45763;BME280;37512;52.408;13.356;2023-12-20T19:15:35;100089.88;;;4.95;79.92
45763;BME280;37512;52.408;13.356;2023-12-20T19:19:38;100067.56;;;5.05;79.78
45763;BME280;37512;52.408;13.356;2023-12-20T19:23:41;100075.22;;;5.17;78.93
45763;BME280;37512;52.408;13.356;2023-12-20T19:27:47;100072.69;;;5.07;79.00
45763;BME280;37512;52.408;13.356;2023-12-20T19:31:50;100071.66;;;5.00;79.41
45763;BME280;37512;52.408;13.356;2023-12-20T19:35:56;100076.03;;;5.09;78.74
45763;BME280;37512;52.408;13.356;2023-12-20T19:39:59;100083.09;;;5.26;78.39
45763;BME280;37512;52.408;13.356;2023-12-20T19:44:03;100072.94;;;5.22;78.41
45763;BME280;37512;52.408;13.356;2023-12-20T19:48:07;100065.66;;;5.24;78.09
45763;BME280;37512;52.408;13.356;2023-12-20T19:52:11;100059.94;;;5.10;78.43
45763;BME280;37512;52.408;13.356;2023-12-20T19:56:14;100053.88;;;5.26;77.68
45763;BME280;37512;52.408;13.356;2023-12-20T20:00:20;100067.16;;;5.00;77.93
45763;BME280;37512;52.408;13.356;2023-12-20T20:04:25;100054.66;;;5.19;76.96
45763;BME280;37512;52.408;13.356;2023-12-20T20:08:32;100048.59;;;5.34;76.84
45763;BME280;37512;52.408;13.356;2023-12-20T20:12:36;100056.03;;;5.23;76.55
45763;BME280;37512;52.408;13.356;2023-12-20T20:16:40;100064.50;;;5.26;77.06
45763;BME280;37512;52.408;13.356;2023-12-20T20:20:45;100045.59;;;5.37;76.88
45763;BME280;37512;52.408;13.356;2023-12-20T20:24:50;100040.09;;;5.31;77.27
45763;BME280;37512;52.408;13.356;2023-12-20T20:28:54;100037.03;;;5.09;78.69
45763;BME280;37512;52.408;13.356;2023-12-20T20:33:00;100056.13;;;5.13;78.63
45763;BME280;37512;52.408;13.356;2023-12-20T20:37:06;100051.06;;;5.02;80.22
45763;BME280;37512;52.408;13.356;2023-12-20T20:41:10;100032.38;;;5.03;79.76
45763;BME280;37512;52.408;13.356;2023-12-20T20:45:14;100034.63;;;5.24;79.18
45763;BME280;37512;52.408;13.356;2023-12-20T20:49:17;100014.97;;;4.83;80.59
45763;BME280;37512;52.408;13.356;2023-12-20T20:53:22;100000.09;;;4.90;81.21
45763;BME280;37512;52.408;13.356;2023-12-20T20:57:26;99994.88;;;5.14;81.28
45763;BME280;37512;52.408;13.356;2023-12-20T21:01:28;100004.94;;;4.95;82.06
45763;BME280;37512;52.408;13.356;2023-12-20T21:05:34;100003.28;;;5.02;81.97
45763;BME280;37512;52.408;13.356;2023-12-20T21:09:37;100012.72;;;4.96;82.08
45763;BME280;37512;52.408;13.356;2023-12-20T21:13:40;99995.97;;;4.96;82.15
45763;BME280;37512;52.408;13.356;2023-12-20T21:17:45;99992.22;;;4.72;84.24
45763;BME280;37512;52.408;13.356;2023-12-20T21:21:48;99977.53;;;4.86;84.04
45763;BME280;37512;52.408;13.356;2023-12-20T21:25:52;99971.56;;;4.58;85.74
45763;BME280;37512;52.408;13.356;2023-12-20T21:29:55;99966.28;;;4.66;85.26
45763;BME280;37512;52.408;13.356;2023-12-20T21:33:59;99961.78;;;4.59;86.89
45763;BME280;37512;52.408;13.356;2023-12-20T21:38:02;99951.06;;;4.42;87.56